CAX3 weather

CLOSED Sechelt/Porpoise Bay Water Aerodrome
Sechelt, British Columbia, Canada

Public forecast

Using degrees Celsius for public forecast. Weather courtesy of forecast.io.

METAR (pilot weather report)

Closest report is Nanaimo Airport, 26.1 nm (48.3 km) S. Retrieved 2019/07/20 17:00 UTC (38 minutes ago):

CYCD 201700Z 03005KT 25SM FEW260 20/11 A3013 RMK CI1 SLP206 DENSITY ALT 500FT

TAF (pilot weather forecast)

Closest forecast is Nanaimo Airport, 26.1 nm (48.3 km) S. Retrieved 2019/07/20 15:42 UTC (2 hours ago):

TAF CYCD 201438Z 2015/2103 28007KT P6SM FEW040 BECMG 2017/2019 02007KT RMK NXT FCST BY 201800Z